Time;durP1;ratioP1;P1;durP2;ratioP2;P2;SDS_P1;SDS_P2;PMS_P1;PMS_P2;Temp;Humidity;BMP_temperature;BMP_pressure;BME280_temperature;BME280_humidity;BME280_pressure;Samples;Min_cycle;Max_cycle;Signal;HPM_P1;HPM_P2
2022/10/01 00:02:01;;;;;;;2.80;2.50;;;14.40;61.00;;;16.88;47.70;100460.28;4898566;29;20257;-57
2022/10/01 00:04:30;;;;;;;2.80;2.50;;;14.40;61.10;;;16.89;47.61;100461.94;4898554;29;20318;-58
2022/10/01 00:07:01;;;;;;;3.43;2.20;;;14.40;61.00;;;16.84;47.85;100465.25;4898934;29;20243;-59
2022/10/01 00:09:30;;;;;;;2.87;2.47;;;14.40;61.10;;;16.87;47.90;100466.66;4898646;29;20200;-58
2022/10/01 00:11:58;;;;;;;3.43;2.33;;;14.40;61.20;;;16.85;47.87;100466.84;4898101;29;20218;-55
2022/10/01 00:14:26;;;;;;;2.77;2.10;;;14.40;61.20;;;16.86;47.61;100457.03;4897507;29;20210;-59
2022/10/01 00:16:54;;;;;;;2.63;2.43;;;14.40;61.20;;;16.84;47.86;100451.97;4898046;29;20207;-57
2022/10/01 00:19:21;;;;;;;5.17;2.30;;;14.40;61.30;;;16.85;47.88;100445.59;4898003;29;20203;-60
2022/10/01 00:21:50;;;;;;;7.10;2.87;;;14.40;61.30;;;16.89;47.62;100438.00;4897540;29;20183;-58
2022/10/01 00:24:17;;;;;;;2.70;2.47;;;14.40;61.30;;;16.87;47.84;100438.22;4897776;29;20203;-59
2022/10/01 00:26:46;;;;;;;3.53;2.30;;;14.40;61.40;;;16.93;47.73;100436.50;4898057;29;20199;-60
2022/10/01 00:29:14;;;;;;;3.13;2.40;;;14.40;61.30;;;16.93;47.82;100429.34;4897917;29;20195;-60
2022/10/01 00:31:42;;;;;;;4.67;2.83;;;14.40;61.30;;;16.97;47.53;100424.41;4878343;29;20228;-59
2022/10/01 00:34:13;;;;;;;2.90;2.30;;;14.40;61.30;;;16.92;47.47;100414.41;4879327;29;20207;-59
2022/10/01 00:36:41;;;;;;;3.43;2.30;;;14.40;61.30;;;16.87;47.93;100416.16;4891750;29;20204;-59
2022/10/01 00:39:11;;;;;;;2.27;2.07;;;14.40;61.40;;;16.89;47.57;100414.88;4897459;29;20605;-59
2022/10/01 00:41:39;;;;;;;3.83;2.47;;;14.40;61.40;;;16.91;47.52;100406.69;4897473;29;20199;-58
2022/10/01 00:44:31;;;;;;;2.57;2.37;;;14.40;61.40;;;16.81;47.78;100401.88;4912781;29;20615;-60
2022/10/01 00:47:07;;;;;;;3.03;2.10;;;14.40;61.50;;;16.79;48.30;100403.16;4897518;29;20191;-58
2022/10/01 00:49:39;;;;;;;2.37;2.17;;;14.40;61.60;;;16.83;48.10;100388.38;4897649;29;20180;-59
2022/10/01 00:52:12;;;;;;;3.30;2.30;;;14.40;62.40;;;16.88;47.85;100385.84;4897597;29;20274;-58
2022/10/01 00:54:48;;;;;;;2.70;2.30;;;14.40;61.60;;;16.85;48.02;100381.00;4897805;29;20691;-57
2022/10/01 00:57:20;;;;;;;2.40;2.20;;;14.40;61.70;;;16.82;48.04;100373.47;4897744;29;20589;-59
2022/10/01 00:59:50;;;;;;;3.07;2.77;;;14.40;61.70;;;16.86;47.57;100371.97;4897806;29;20270;-60
2022/10/01 01:02:17;;;;;;;4.33;2.60;;;14.40;61.70;;;16.86;48.01;100369.31;4897796;29;20225;-59
2022/10/01 01:04:45;;;;;;;2.83;2.23;;;14.40;61.70;;;16.89;48.15;100364.38;4897846;29;20207;-59
2022/10/01 01:07:13;;;;;;;2.33;2.13;;;14.40;61.70;;;16.88;48.27;100364.56;4897517;29;20250;-59
2022/10/01 01:09:45;;;;;;;4.37;2.60;;;14.40;61.90;;;16.84;48.20;100366.06;4897696;29;20653;-58
2022/10/01 01:12:29;;;;;;;2.07;1.97;;;14.40;61.90;;;16.88;48.19;100356.59;4897254;29;20689;-57
2022/10/01 01:15:13;;;;;;;4.77;2.80;;;14.50;62.00;;;16.85;48.20;100359.72;4897397;29;20199;-57
2022/10/01 01:17:53;;;;;;;2.43;2.07;;;14.50;62.00;;;16.91;48.17;100351.66;4901238;29;20199;-60
2022/10/01 01:21:10;;;;;;;2.93;2.43;;;14.50;61.80;;;16.93;47.83;100351.44;4900297;29;20202;-61
2022/10/01 01:24:31;;;;;;;2.97;2.50;;;14.50;61.80;;;16.92;48.17;100349.81;4900697;29;20752;-58
2022/10/01 01:27:17;;;;;;;4.53;2.30;;;14.50;61.70;;;16.97;47.94;100341.97;4880525;29;20559;-59
2022/10/01 01:29:59;;;;;;;2.43;2.20;;;14.50;61.70;;;17.00;48.05;100336.19;4885499;29;20195;-59
2022/10/01 01:32:33;;;;;;;3.17;2.40;;;14.60;61.70;;;16.96;47.84;100329.72;4899787;29;20692;-59
2022/10/01 01:35:06;;;;;;;3.37;2.47;;;14.50;61.50;;;16.91;48.14;100321.59;4899328;29;20633;-60
2022/10/01 01:37:40;;;;;;;3.57;2.30;;;14.50;61.60;;;16.98;47.75;100324.97;4900501;29;20195;-59
2022/10/01 01:40:12;;;;;;;3.30;2.30;;;14.60;61.50;;;16.91;47.84;100316.28;4911016;29;20218;-60
2022/10/01 01:42:43;;;;;;;3.17;2.27;;;14.50;61.40;;;16.86;48.11;100308.16;4918942;29;20581;-57
2022/10/01 01:45:18;;;;;;;3.00;2.00;;;14.60;61.50;;;16.94;48.17;100315.84;4919397;29;20187;-57
2022/10/01 01:47:47;;;;;;;2.97;2.10;;;14.60;61.30;;;16.97;48.03;100312.72;4906264;29;20233;-55
2022/10/01 01:50:16;;;;;;;4.67;2.57;;;14.60;62.20;;;17.00;48.16;100309.59;4900224;29;20652;-56
2022/10/01 01:52:44;;;;;;;2.47;2.20;;;14.60;62.30;;;17.06;47.90;100300.72;4899835;29;20240;-58
2022/10/01 01:55:12;;;;;;;2.33;2.10;;;14.60;61.40;;;17.05;48.24;100296.44;4899693;29;20207;-59
2022/10/01 01:57:43;;;;;;;3.90;2.33;;;14.70;62.00;;;17.05;48.42;100295.63;4900000;29;20206;-59
2022/10/01 02:00:14;;;;;;;2.40;2.20;;;14.70;62.30;;;17.03;48.91;100292.38;4899040;29;20191;-57
2022/10/01 02:02:48;;;;;;;4.07;2.57;;;14.70;62.70;;;16.98;49.27;100282.44;4899581;29;20223;-59
2022/10/01 02:05:22;;;;;;;3.47;2.50;;;14.70;63.30;;;16.97;49.62;100285.31;4900105;29;20199;-58
2022/10/01 02:08:34;;;;;;;2.23;2.13;;;14.60;64.20;;;16.80;50.24;100277.19;4900083;29;20195;-56
2022/10/01 02:11:18;;;;;;;2.67;2.43;;;14.60;64.10;;;16.58;51.25;100268.09;4896590;29;20215;-55
2022/10/01 02:14:00;;;;;;;3.03;2.73;;;14.50;65.00;;;16.52;51.28;100261.03;4894069;29;20222;-56
2022/10/01 02:16:44;;;;;;;2.93;2.67;;;14.40;65.20;;;16.53;51.83;100254.66;4900027;29;20625;-55
2022/10/01 02:19:22;;;;;;;4.00;2.70;;;14.40;65.80;;;16.54;52.01;100261.59;4899996;29;20235;-57
2022/10/01 02:21:59;;;;;;;3.53;3.20;;;14.40;66.20;;;16.52;51.96;100264.47;4899556;29;20206;-59
2022/10/01 02:24:37;;;;;;;4.80;2.50;;;14.30;66.90;;;16.55;52.06;100247.25;4900044;29;20250;-58
2022/10/01 02:27:12;;;;;;;3.43;2.77;;;14.30;66.90;;;16.54;52.32;100251.78;4900636;29;20258;-59
2022/10/01 02:29:42;;;;;;;4.07;2.80;;;14.20;67.30;;;16.52;52.37;100245.09;4901260;29;20239;-58
2022/10/01 02:32:14;;;;;;;3.17;2.87;;;14.20;68.30;;;16.51;52.50;100251.38;4901504;29;20271;-56
2022/10/01 02:34:48;;;;;;;6.03;3.03;;;14.20;67.90;;;16.49;52.73;100242.84;4902351;29;20199;-58
2022/10/01 02:37:20;;;;;;;3.63;3.20;;;14.20;68.40;;;16.44;52.90;100227.56;4913278;29;20208;-58
2022/10/01 02:39:50;;;;;;;3.33;3.13;;;14.10;68.60;;;16.40;53.48;100223.75;4902444;29;20227;-58
2022/10/01 02:42:21;;;;;;;4.70;2.97;;;14.10;68.90;;;16.31;53.68;100224.28;4899435;29;20705;-58
2022/10/01 02:44:52;;;;;;;3.37;3.07;;;14.10;69.30;;;16.22;54.16;100219.28;4900198;29;20184;-59
2022/10/01 02:47:32;;;;;;;4.37;3.80;;;14.00;69.60;;;16.14;54.52;100216.91;4899705;29;20195;-57
2022/10/01 02:50:01;;;;;;;3.90;3.00;;;14.00;69.90;;;16.09;54.69;100216.78;4898482;29;20295;-59
2022/10/01 02:52:39;;;;;;;3.87;3.57;;;13.90;70.20;;;16.04;55.24;100208.69;4898386;29;20630;-58
2022/10/01 02:55:13;;;;;;;3.83;3.40;;;13.90;70.50;;;16.06;55.47;100203.16;4899287;29;20199;-56
2022/10/01 02:57:41;;;;;;;4.53;3.53;;;13.90;70.80;;;16.05;55.56;100198.84;4899307;29;20273;-58
2022/10/01 03:00:13;;;;;;;4.40;3.67;;;13.90;71.40;;;16.10;55.87;100191.84;4899077;29;20195;-57
2022/10/01 03:02:42;;;;;;;5.23;3.87;;;13.90;71.70;;;16.02;56.13;100188.69;4898643;29;20591;-57
2022/10/01 03:05:09;;;;;;;4.63;3.03;;;13.80;71.80;;;16.00;55.77;100180.13;4898363;29;21021;-57
2022/10/01 03:07:38;;;;;;;4.47;3.30;;;13.80;72.00;;;15.98;56.63;100171.59;4898829;29;20219;-55
2022/10/01 03:10:08;;;;;;;4.37;3.60;;;13.80;72.60;;;15.95;56.50;100167.53;4913433;29;20203;-56
2022/10/01 03:12:36;;;;;;;3.80;3.30;;;13.80;72.90;;;15.88;56.79;100161.50;4912171;29;20226;-57
2022/10/01 03:15:05;;;;;;;4.77;3.47;;;13.70;73.50;;;15.83;57.11;100152.59;4899243;29;20254;-56
2022/10/01 03:17:34;;;;;;;6.30;4.07;;;13.70;73.80;;;15.76;58.05;100142.03;4899019;29;20191;-56
2022/10/01 03:20:05;;;;;;;4.47;3.60;;;13.70;74.50;;;15.67;58.56;100138.06;4901014;29;20247;-56
2022/10/01 03:22:33;;;;;;;4.07;3.67;;;13.60;74.90;;;15.72;58.35;100135.56;4901185;29;20208;-55
2022/10/01 03:25:01;;;;;;;5.33;4.00;;;13.60;75.00;;;15.64;58.69;100127.94;4902738;29;20267;-57
2022/10/01 03:27:28;;;;;;;3.73;3.43;;;13.50;75.40;;;15.68;59.30;100112.34;4903026;29;20283;-59
2022/10/01 03:29:55;;;;;;;3.90;3.50;;;13.50;75.90;;;15.71;58.72;100115.38;4902668;29;20249;-58
2022/10/01 03:32:23;;;;;;;4.20;3.90;;;13.50;76.10;;;15.70;59.07;100115.59;4897287;29;20351;-55
2022/10/01 03:34:50;;;;;;;4.23;3.83;;;13.50;76.50;;;15.55;59.94;100100.06;4884039;29;20264;-55
2022/10/01 03:37:18;;;;;;;5.63;3.90;;;13.40;77.10;;;15.48;60.39;100101.97;4883157;29;20192;-56
2022/10/01 03:39:46;;;;;;;8.30;4.57;;;13.40;78.00;;;15.46;60.82;100098.75;4890530;29;20252;-58
2022/10/01 03:42:15;;;;;;;5.37;4.37;;;13.40;78.90;;;15.44;60.98;100095.47;4897668;29;20215;-59
2022/10/01 03:44:43;;;;;;;4.93;4.43;;;13.30;79.20;;;15.41;61.62;100091.41;4896478;29;20613;-59
2022/10/01 03:47:10;;;;;;;4.77;4.33;;;13.20;80.20;;;15.35;61.77;100094.16;4897559;29;20206;-57
2022/10/01 03:49:38;;;;;;;4.87;4.47;;;13.10;81.30;;;15.22;62.75;100075.72;4897831;29;20195;-58
2022/10/01 03:52:05;;;;;;;4.47;4.07;;;13.10;81.40;;;15.23;62.70;100077.34;4897469;29;20219;-58
2022/10/01 03:54:34;;;;;;;5.07;4.57;;;13.00;81.90;;;15.09;63.45;100066.09;4898682;29;20199;-58
2022/10/01 03:57:01;;;;;;;5.07;4.60;;;12.90;82.40;;;15.05;63.97;100058.81;4898206;29;20207;-60
2022/10/01 03:59:28;;;;;;;5.00;4.60;;;12.90;83.00;;;15.01;64.47;100052.31;4898667;29;20259;-58
2022/10/01 04:01:56;;;;;;;5.47;4.40;;;12.80;83.80;;;14.95;64.75;100046.06;4897122;29;20379;-58
2022/10/01 04:04:23;;;;;;;6.47;4.23;;;12.80;84.50;;;15.01;65.14;100031.09;4896641;29;20289;-56
2022/10/01 04:06:50;;;;;;;4.43;4.03;;;12.70;84.90;;;15.01;65.33;100037.22;4912375;29;20684;-59
2022/10/01 04:09:18;;;;;;;7.50;5.07;;;12.70;85.30;;;15.00;65.26;100024.97;4897900;29;20187;-58
2022/10/01 04:11:47;;;;;;;5.57;4.73;;;12.70;86.00;;;14.96;65.46;100023.00;4897185;29;20238;-59
2022/10/01 04:14:14;;;;;;;7.30;4.50;;;12.70;86.10;;;14.92;65.79;100014.69;4897523;29;20195;-58
2022/10/01 04:16:42;;;;;;;5.97;4.77;;;12.60;86.60;;;14.86;66.17;100019.03;4897516;29;20195;-59
2022/10/01 04:19:09;;;;;;;5.67;4.03;;;12.60;87.00;;;14.82;66.35;100007.25;4897248;29;20196;-56
2022/10/01 04:21:37;;;;;;;4.67;4.20;;;12.60;87.20;;;14.82;66.46;99996.66;4897244;29;20199;-59
2022/10/01 04:24:05;;;;;;;5.67;4.43;;;12.50;87.50;;;14.83;66.76;99981.56;4897460;29;20549;-57
2022/10/01 04:26:33;;;;;;;5.13;4.50;;;12.50;87.80;;;14.53;67.33;99981.47;4897572;29;20203;-59
2022/10/01 04:29:01;;;;;;;7.50;4.67;;;12.40;88.10;;;14.48;68.11;99978.66;4908980;29;20253;-58
2022/10/01 04:31:33;;;;;;;5.03;4.40;;;12.40;88.60;;;14.57;68.10;99972.03;4897959;29;20219;-58
2022/10/01 04:34:02;;;;;;;6.80;4.50;;;12.40;89.00;;;14.43;68.45;99954.66;4897311;29;20227;-58
2022/10/01 04:36:30;;;;;;;5.33;4.87;;;12.30;89.50;;;14.48;69.09;99946.88;4897668;29;20621;-58
2022/10/01 04:38:57;;;;;;;7.63;5.33;;;12.40;90.10;;;14.48;68.72;99972.53;4899240;29;20203;-57
2022/10/01 04:41:29;;;;;;;4.90;4.33;;;12.30;90.00;;;14.38;69.15;99973.03;4897158;29;20259;-56
2022/10/01 04:43:58;;;;;;;6.27;5.03;;;12.30;90.20;;;14.36;69.39;99984.91;4897149;29;20230;-57
2022/10/01 04:46:28;;;;;;;4.73;4.27;;;12.20;90.30;;;14.24;69.52;99966.22;4897229;29;20206;-58
2022/10/01 04:48:56;;;;;;;4.77;4.40;;;12.20;90.30;;;14.34;69.07;99982.44;4897356;29;20198;-58
2022/10/01 04:51:24;;;;;;;4.60;4.20;;;12.20;90.30;;;14.31;69.26;99992.69;4899436;29;20219;-57
2022/10/01 04:53:51;;;;;;;4.90;4.10;;;12.10;90.30;;;14.34;69.18;99979.81;4900859;29;20219;-59
2022/10/01 04:56:18;;;;;;;4.97;4.50;;;12.20;90.40;;;14.24;69.54;99982.91;4890955;29;20260;-57
2022/10/01 04:58:47;;;;;;;4.97;4.53;;;12.20;90.50;;;14.22;69.64;99990.25;4882393;29;20208;-59
2022/10/01 05:01:14;;;;;;;5.33;4.80;;;12.10;90.50;;;14.30;69.24;99981.28;4882199;29;20248;-57
2022/10/01 05:03:43;;;;;;;4.80;4.40;;;12.20;90.40;;;14.28;69.16;99983.31;4882372;29;20304;-54
2022/10/01 05:06:10;;;;;;;4.90;4.40;;;12.20;90.40;;;14.36;69.37;99974.31;4882205;29;20256;-59
2022/10/01 05:08:37;;;;;;;6.97;4.43;;;12.20;90.50;;;14.38;69.07;99975.69;4882322;29;20207;-57
2022/10/01 05:11:05;;;;;;;4.67;4.27;;;12.20;90.40;;;14.47;68.60;99976.25;4898596;29;20225;-58
2022/10/01 05:13:32;;;;;;;4.27;3.97;;;12.30;90.30;;;14.49;68.32;99976.81;4900806;29;20284;-58
2022/10/01 05:16:02;;;;;;;3.77;3.47;;;12.20;90.50;;;14.51;68.29;99959.69;4900745;29;20605;-58
2022/10/01 05:18:30;;;;;;;4.07;3.57;;;12.30;90.20;;;14.54;68.45;99967.22;4900902;29;20200;-58
2022/10/01 05:21:04;;;;;;;4.03;3.70;;;12.40;90.00;;;14.53;68.13;99952.34;4900338;29;20207;-58
2022/10/01 05:23:32;;;;;;;3.80;3.50;;;12.40;90.00;;;14.65;67.86;99947.94;4900856;29;20693;-58
2022/10/01 05:25:59;;;;;;;3.73;3.43;;;12.40;89.70;;;14.67;67.44;99947.69;4918052;29;20199;-57
2022/10/01 05:28:26;;;;;;;3.70;3.27;;;12.40;89.30;;;14.65;67.34;99945.28;4919198;29;20685;-59
2022/10/01 05:30:58;;;;;;;3.53;3.23;;;12.50;89.10;;;14.69;67.26;99941.16;4905749;29;20661;-57
2022/10/01 05:33:25;;;;;;;3.67;3.37;;;12.50;88.90;;;14.78;67.26;99937.19;4900264;29;20609;-58
2022/10/01 05:35:53;;;;;;;3.40;3.10;;;12.60;88.60;;;14.78;66.81;99939.84;4900493;29;20196;-59
2022/10/01 05:38:22;;;;;;;3.20;2.87;;;12.60;88.50;;;14.86;66.71;99944.00;4900241;29;20204;-58
2022/10/01 05:40:49;;;;;;;3.37;3.03;;;12.60;88.20;;;14.87;66.45;99946.47;4901991;29;20238;-57
2022/10/01 05:43:17;;;;;;;3.67;3.37;;;12.70;88.20;;;14.91;66.35;99931.72;4900404;29;20561;-58
2022/10/01 05:45:44;;;;;;;4.83;3.30;;;12.70;88.00;;;15.03;66.10;99933.63;4900182;29;20534;-59
2022/10/01 05:48:12;;;;;;;4.83;3.27;;;12.70;87.90;;;15.03;66.10;99933.63;4898800;29;20697;-58
2022/10/01 05:50:41;;;;;;;4.13;3.20;;;12.70;87.70;;;15.10;66.01;99929.03;4899216;29;20203;-56
2022/10/01 05:53:10;;;;;;;3.50;3.00;;;12.80;87.70;;;15.09;66.07;99936.22;4893778;29;20224;-58
2022/10/01 05:55:39;;;;;;;3.50;3.20;;;12.80;87.70;;;15.09;66.19;99922.16;4881545;29;20188;-59
2022/10/01 05:58:10;;;;;;;3.27;3.00;;;12.80;88.00;;;15.07;66.22;99913.63;4881453;29;20203;-57
2022/10/01 06:00:40;;;;;;;3.30;3.00;;;12.80;87.90;;;15.11;66.37;99914.78;4880587;29;20270;-57
2022/10/01 06:03:11;;;;;;;3.43;3.23;;;12.80;88.10;;;15.15;66.58;99921.22;4881392;29;20228;-59
2022/10/01 06:05:39;;;;;;;3.30;3.00;;;12.90;88.30;;;15.13;66.48;99918.00;4881609;29;20565;-57
2022/10/01 06:08:10;;;;;;;2.83;2.63;;;12.90;88.30;;;15.09;66.50;99911.53;4881109;29;20207;-57
2022/10/01 06:10:39;;;;;;;3.07;2.80;;;12.90;88.40;;;15.05;66.73;99905.88;4881302;29;20204;-58
2022/10/01 06:13:07;;;;;;;3.00;2.70;;;12.90;88.50;;;15.07;66.95;99903.00;4889541;29;20345;-59
2022/10/01 06:15:37;;;;;;;2.43;2.23;;;12.90;88.50;;;15.08;66.70;99894.81;4900201;29;20202;-58
2022/10/01 06:18:07;;;;;;;3.07;2.87;;;12.80;88.60;;;15.04;67.20;99901.63;4900423;29;20191;-57
2022/10/01 06:20:35;;;;;;;3.40;3.00;;;12.80;88.80;;;15.10;66.98;99894.59;4891766;29;20201;-57
2022/10/01 06:23:10;;;;;;;2.90;2.70;;;12.90;88.80;;;15.14;66.82;99893.13;4919714;29;20210;-58
2022/10/01 06:25:40;;;;;;;3.10;2.80;;;12.90;88.80;;;14.98;67.31;99899.03;4903384;29;20195;-59
2022/10/01 06:28:11;;;;;;;3.50;3.20;;;12.80;89.30;;;14.96;67.92;99898.44;4899862;29;20537;-58
2022/10/01 06:30:39;;;;;;;4.23;3.40;;;12.80;89.60;;;14.97;68.10;99894.78;4899438;29;20744;-57
2022/10/01 06:33:09;;;;;;;3.43;2.70;;;12.80;89.80;;;14.92;68.15;99895.44;4898533;29;20218;-57
2022/10/01 06:35:42;;;;;;;3.23;3.00;;;12.80;90.10;;;14.96;68.24;99895.78;4899600;29;20247;-60
2022/10/01 06:38:10;;;;;;;3.20;2.97;;;12.80;90.10;;;14.93;68.24;99892.56;4900327;29;20192;-57
2022/10/01 06:40:39;;;;;;;2.73;2.53;;;12.80;90.20;;;14.93;68.23;99886.44;4901342;29;20211;-58
2022/10/01 06:43:08;;;;;;;3.20;2.83;;;12.80;90.20;;;14.96;68.60;99895.78;4900187;29;20633;-55
2022/10/01 06:45:38;;;;;;;2.70;2.50;;;12.80;90.40;;;15.01;68.45;99893.28;4899459;29;20239;-64
2022/10/01 06:48:08;;;;;;;2.83;2.33;;;12.70;90.40;;;15.01;68.48;99891.44;4900210;29;20714;-57
2022/10/01 06:50:35;;;;;;;2.73;2.50;;;12.80;90.50;;;14.95;68.82;99884.41;4901688;29;20196;-59
2022/10/01 06:53:03;;;;;;;2.90;2.27;;;12.70;90.50;;;14.96;68.80;99890.50;4901503;29;20219;-58
2022/10/01 06:55:35;;;;;;;3.33;3.13;;;12.70;90.50;;;14.98;68.52;99893.72;4900476;29;20235;-59
2022/10/01 06:58:07;;;;;;;3.00;2.50;;;12.70;90.60;;;14.98;68.79;99896.38;4899499;29;20224;-58
2022/10/01 07:00:37;;;;;;;2.70;2.43;;;12.80;90.70;;;15.11;68.60;99898.88;4891982;29;20295;-58
2022/10/01 07:03:09;;;;;;;2.53;2.40;;;12.80;90.60;;;15.06;68.42;99881.00;4880774;29;20208;-57
2022/10/01 07:05:37;;;;;;;2.57;2.27;;;12.80;90.60;;;14.99;68.84;99879.47;4880864;29;20187;-57
2022/10/01 07:08:06;;;;;;;3.17;2.60;;;12.70;90.60;;;14.96;69.11;99874.59;4880496;29;20192;-58
2022/10/01 07:10:34;;;;;;;2.20;2.10;;;12.80;90.80;;;15.06;68.69;99882.81;4880613;29;20193;-56
2022/10/01 07:13:08;;;;;;;2.10;2.00;;;12.80;90.70;;;15.14;68.42;99885.97;4886149;29;20576;-58
2022/10/01 07:15:36;;;;;;;2.13;2.00;;;12.80;91.10;;;15.29;68.19;99890.84;4898739;29;20253;-57
2022/10/01 07:18:05;;;;;;;2.10;2.00;;;12.90;90.70;;;15.35;68.22;99889.97;4898734;29;20263;-58
2022/10/01 07:20:34;;;;;;;2.33;2.10;;;12.90;90.80;;;15.40;68.08;99887.44;4898297;29;20198;-58
2022/10/01 07:23:02;;;;;;;2.60;2.40;;;13.00;90.80;;;15.35;68.00;99890.78;4897027;29;20274;-57
2022/10/01 07:25:30;;;;;;;2.20;2.00;;;13.00;90.80;;;15.38;68.15;99885.00;4897212;29;20251;-58
2022/10/01 07:28:00;;;;;;;2.10;1.90;;;13.00;91.00;;;15.33;68.10;99886.75;4898133;29;20266;-58
2022/10/01 07:30:31;;;;;;;2.20;2.00;;;13.00;90.80;;;15.34;68.25;99896.28;4898340;29;20605;-58
2022/10/01 07:32:59;;;;;;;2.03;1.93;;;13.00;90.70;;;15.47;68.10;99904.91;4897350;29;20268;-58
2022/10/01 07:35:27;;;;;;;2.53;2.33;;;13.10;90.70;;;15.55;67.75;99890.50;4898619;29;20191;-58
2022/10/01 07:37:54;;;;;;;1.97;1.87;;;13.10;90.90;;;15.66;67.64;99891.56;4899099;29;20533;-57
2022/10/01 07:40:22;;;;;;;2.03;1.93;;;13.10;90.80;;;15.64;67.43;99883.84;4899534;29;20611;-62
2022/10/01 07:42:55;;;;;;;2.10;2.00;;;13.20;90.80;;;15.66;67.58;99897.69;4897981;29;20262;-59
2022/10/01 07:45:23;;;;;;;2.10;1.90;;;13.20;90.80;;;15.55;67.74;99895.81;4897163;29;20255;-57
2022/10/01 07:47:53;;;;;;;1.87;1.77;;;13.20;90.80;;;15.40;68.55;99893.53;4898603;29;20195;-58
2022/10/01 07:50:22;;;;;;;2.50;2.30;;;13.20;90.80;;;15.47;68.56;99896.97;4901804;29;20206;-58
2022/10/01 07:52:53;;;;;;;2.30;2.20;;;13.20;90.70;;;15.63;68.25;99897.31;4889112;29;20287;-58
2022/10/01 07:55:21;;;;;;;2.47;1.90;;;13.30;90.90;;;15.69;68.10;99896.44;4882855;29;20191;-58
2022/10/01 07:57:51;;;;;;;2.27;2.10;;;13.30;90.90;;;15.86;67.74;99898.16;4883559;29;20200;-57
2022/10/01 08:00:20;;;;;;;2.60;2.40;;;13.40;90.90;;;15.98;67.81;99895.50;4890285;29;20684;-56
2022/10/01 08:02:49;;;;;;;2.70;2.50;;;13.40;90.90;;;16.04;67.17;99884.81;4902508;29;20215;-59
2022/10/01 08:05:20;;;;;;;3.00;2.33;;;13.50;91.00;;;16.05;67.42;99897.03;4916233;29;20206;-56
2022/10/01 08:07:49;;;;;;;2.60;2.40;;;13.50;90.90;;;16.13;67.03;99891.38;4899612;29;20199;-59
2022/10/01 08:10:19;;;;;;;2.47;2.37;;;13.60;90.90;;;16.22;67.09;99900.59;4898360;29;20712;-58
2022/10/01 08:12:46;;;;;;;3.00;2.80;;;13.60;90.90;;;16.27;66.83;99890.09;4900208;29;20223;-59
2022/10/01 08:15:16;;;;;;;2.90;2.63;;;13.70;90.90;;;16.26;66.84;99893.78;4916883;29;20198;-58
2022/10/01 08:17:44;;;;;;;3.20;3.00;;;13.70;90.70;;;16.32;66.84;99912.50;4901560;29;20684;-56
2022/10/01 08:20:14;;;;;;;4.77;4.33;;;13.80;90.70;;;16.44;66.54;99897.34;4898395;29;20219;-58
2022/10/01 08:22:42;;;;;;;3.47;3.17;;;13.80;90.80;;;16.58;66.32;99917.34;4897453;29;20259;-59
2022/10/01 08:25:10;;;;;;;3.93;2.97;;;13.90;90.70;;;16.66;65.89;99909.03;4899686;29;20202;-59
2022/10/01 08:27:37;;;;;;;3.03;2.83;;;14.00;90.60;;;16.79;66.33;99919.38;4901338;29;20199;-58
2022/10/01 08:30:06;;;;;;;2.60;2.40;;;14.00;90.60;;;16.93;65.82;99912.75;4901468;29;20195;-56
2022/10/01 08:32:34;;;;;;;5.03;3.00;;;14.10;90.70;;;16.96;65.92;99914.13;4900013;29;20697;-58
2022/10/01 08:35:03;;;;;;;3.20;3.00;;;14.20;90.70;;;17.06;65.73;99920.47;4901832;29;20213;-56
2022/10/01 08:37:30;;;;;;;3.10;2.90;;;14.30;90.70;;;17.11;65.27;99914.44;4901104;29;20223;-58
2022/10/01 08:39:59;;;;;;;3.20;3.00;;;14.30;90.50;;;17.05;65.38;99924.16;4903538;29;20214;-58
2022/10/01 08:42:52;;;;;;;2.97;2.77;;;14.30;90.30;;;17.07;65.41;99922.06;4900726;29;20238;-58
2022/10/01 08:45:27;;;;;;;3.13;2.83;;;14.40;90.50;;;17.17;65.35;99932.91;4901468;29;20262;-59
2022/10/01 08:48:03;;;;;;;2.90;2.70;;;14.50;90.40;;;17.24;65.14;99930.09;4901215;29;20225;-58
2022/10/01 08:50:43;;;;;;;3.33;3.10;;;14.50;90.40;;;17.23;65.10;99926.66;4900597;29;20338;-58
2022/10/01 08:53:22;;;;;;;3.43;3.10;;;14.50;90.30;;;17.26;65.08;99931.47;4900858;29;20227;-57
2022/10/01 08:55:55;;;;;;;4.83;4.33;;;14.60;90.30;;;17.29;65.14;99931.00;4900760;29;20187;-58
2022/10/01 08:58:34;;;;;;;3.33;3.03;;;14.60;90.30;;;17.40;65.27;99938.13;4901023;29;20179;-59
2022/10/01 09:01:01;;;;;;;3.60;3.30;;;14.70;90.40;;;17.54;64.92;99939.47;4900329;29;20203;-58
2022/10/01 09:03:31;;;;;;;3.90;3.60;;;14.70;90.50;;;17.60;64.76;99943.03;4900573;29;20242;-57
2022/10/01 09:06:16;;;;;;;4.40;4.00;;;14.80;90.40;;;17.64;64.92;99943.38;4900344;29;20195;-59
2022/10/01 09:09:05;;;;;;;3.20;3.00;;;14.90;90.30;;;17.71;64.72;99950.13;4900184;29;20196;-59
2022/10/01 09:12:03;;;;;;;3.97;3.60;;;14.90;90.30;;;17.76;64.62;99950.22;4882139;29;20200;-59
2022/10/01 09:15:07;;;;;;;3.07;2.87;;;15.00;90.10;;;17.87;64.86;99948.56;4899847;29;20271;-56
2022/10/01 09:18:02;;;;;;;3.97;3.57;;;15.10;90.20;;;17.95;63.60;99956.13;4915056;29;20195;-56
2022/10/01 09:20:37;;;;;;;4.50;3.50;;;15.10;90.10;;;18.18;64.36;99955.97;4899894;29;20617;-58
2022/10/01 09:23:21;;;;;;;3.67;3.37;;;15.20;90.30;;;18.36;63.98;99963.72;4900043;29;20243;-57
2022/10/01 09:25:50;;;;;;;3.47;3.07;;;15.40;90.40;;;18.60;63.95;99965.16;4900195;29;20203;-58
2022/10/01 09:28:23;;;;;;;3.97;3.10;;;15.50;90.40;;;18.82;63.73;99968.66;4900165;29;20217;-60
2022/10/01 09:31:02;;;;;;;6.67;3.83;;;15.60;90.40;;;18.93;62.43;99970.41;4899741;29;20257;-60
2022/10/01 09:33:35;;;;;;;3.53;2.73;;;15.80;90.10;;;19.06;62.65;99979.09;4900107;29;20231;-57
2022/10/01 09:36:17;;;;;;;4.67;4.00;;;15.90;89.30;;;19.22;61.60;99975.53;4899288;29;20204;-59
2022/10/01 09:38:53;;;;;;;4.30;3.10;;;16.10;88.40;;;19.46;61.69;99968.91;4889693;29;20203;-58
2022/10/01 09:41:22;;;;;;;3.70;3.40;;;16.30;88.60;;;20.02;61.81;99972.88;4881039;29;20196;-57
2022/10/01 09:43:50;;;;;;;2.67;2.43;;;16.60;89.50;;;20.41;60.74;99971.63;4881428;29;20249;-59
2022/10/01 09:46:18;;;;;;;3.60;3.10;;;16.90;89.00;;;20.73;58.98;99974.19;4881355;29;20263;-59
2022/10/01 09:48:56;;;;;;;2.73;2.57;;;17.10;86.50;;;21.08;58.28;99977.09;4881268;29;20203;-56
2022/10/01 09:51:31;;;;;;;4.67;2.83;;;17.50;86.00;;;21.67;59.04;99974.00;4880874;29;20196;-58
2022/10/01 09:54:18;;;;;;;3.33;2.97;;;17.90;86.80;;;22.21;54.42;99970.59;4884855;29;20613;-59
2022/10/01 09:56:53;;;;;;;3.47;2.43;;;18.30;83.30;;;22.77;54.86;99973.97;4900370;29;20236;-61
2022/10/01 09:59:30;;;;;;;3.97;2.53;;;18.80;82.10;;;23.37;51.71;99972.16;4899873;29;20199;-58
2022/10/01 10:02:00;;;;;;;3.80;2.17;;;19.20;78.50;;;23.41;51.99;99989.34;4899343;29;20214;-60
2022/10/01 10:04:28;;;;;;;5.57;2.70;;;19.60;77.80;;;23.28;50.69;99989.91;4900460;29;20269;-60
2022/10/01 10:07:01;;;;;;;2.73;2.53;;;19.80;75.40;;;23.05;51.61;99985.16;4915523;29;20254;-60
2022/10/01 10:09:31;;;;;;;2.67;2.47;;;19.90;74.80;;;22.82;51.45;99984.69;4918487;29;20207;-59
2022/10/01 10:12:00;;;;;;;4.33;2.80;;;19.90;73.90;;;22.73;52.63;99997.09;4898188;29;20222;-58
2022/10/01 10:14:34;;;;;;;2.87;2.50;;;19.80;74.90;;;22.60;51.79;100000.31;4899632;29;20307;-59
2022/10/01 10:17:10;;;;;;;7.63;2.73;;;19.70;73.70;;;22.81;52.37;99999.22;4899964;29;20213;-59
2022/10/01 10:19:39;;;;;;;3.20;1.93;;;19.80;75.30;;;23.15;52.53;100003.94;4899585;29;20755;-59
2022/10/01 10:22:22;;;;;;;4.83;2.67;;;19.90;76.00;;;23.40;50.72;100003.84;4899128;29;20241;-58
2022/10/01 10:24:51;;;;;;;3.13;2.30;;;20.10;74.50;;;23.51;51.84;100013.44;4899471;29;20199;-58
2022/10/01 10:27:25;;;;;;;3.13;2.63;;;20.20;74.30;;;23.44;50.17;100010.25;4899356;29;20257;-57
2022/10/01 10:30:12;;;;;;;2.93;2.17;;;20.30;73.00;;;23.34;50.96;100015.66;4899673;29;20262;-60
2022/10/01 10:32:41;;;;;;;3.23;2.17;;;20.30;72.90;;;23.29;50.80;100023.75;4898214;29;20215;-60
2022/10/01 10:35:16;;;;;;;4.67;1.97;;;20.40;72.80;;;23.21;51.41;100027.81;4898946;29;20230;-59